Omskiy-107 — UBWE3 — position and weather

sailwx.info

Track history (hours):
 
Tides and Currents Weather Stations Pressure Air Temp Water Temp Dewpoint Dewpoint Depression Visibility Wind Speed Wind Dir Waves Ship Positions

Omskiy-107

Last reported at 2017-Dec-13 04:02 UTC. Time now 2017-Dec-18 16:38 UTC.
Position N 45°28' E 036°43'.

Length 108 m; draft 2.6 m.

Type: Cargo ship. MMSI: 273343220.

Date/timePositionNaut miles runAvg speedWind from/ knotsBaromVisibWave heightAir tempDewpointWater temp
2017-Dec-13 04:02N 45°28' E 036°43'0 8.6
2017-Dec-13 03:59N 45°27' E 036°43'4 8.7
2017-Dec-13 03:30N 45°23' E 036°41'4 8.1
2017-Dec-13 03:00N 45°20' E 036°36'7 7.6
2017-Dec-13 02:05N 45°16' E 036°29'0 5.5
2017-Dec-13 02:00N 45°16' E 036°28'7 0.9
2017-Dec-12 18:33N 45°09' E 036°32'0 0.0
2017-Dec-12 17:47N 45°09' E 036°32'0 0.0
2017-Dec-12 17:28N 45°09' E 036°32'0 0.0
2017-Dec-12 15:42N 45°09' E 036°32'0 0.0
2017-Dec-12 14:01N 45°09' E 036°32'0 0.0
2017-Dec-12 14:00N 45°09' E 036°32'0 0.0
2017-Dec-12 13:18N 45°09' E 036°32'0 0.0
2017-Dec-12 12:43N 45°09' E 036°32'0 0.0
2017-Dec-12 11:07N 45°09' E 036°32'  
2017-Dec-03 12:38N 45°09' E 036°28'2 7.4
2017-Dec-03 12:25N 45°11' E 036°28'3 7.4
2017-Dec-03 12:01N 45°14' E 036°28'4 7.1
2017-Dec-03 11:30N 45°17' E 036°29'4 7.4
2017-Dec-03 11:01N 45°19' E 036°33'4 7.4
2017-Dec-03 10:31N 45°21' E 036°38'3 6.6
2017-Dec-03 10:01N 45°24' E 036°40'3 5.8
2017-Dec-03 09:31N 45°27' E 036°40'1 2.4
2017-Dec-03 09:00N 45°28' E 036°39'0 0.0
2017-Dec-03 08:29N 45°28' E 036°39'0 0.0
2017-Dec-03 08:00N 45°28' E 036°39'0 0.0
2017-Dec-03 07:29N 45°28' E 036°39'0 0.0
2017-Dec-03 06:59N 45°28' E 036°39'0 0.0
2017-Dec-03 06:29N 45°28' E 036°39'0 0.0
2017-Dec-03 05:59N 45°28' E 036°39'0 0.0
2017-Dec-03 05:29N 45°28' E 036°39'0 0.0
2017-Dec-03 05:00N 45°28' E 036°39'0 0.1
2017-Dec-03 04:26N 45°28' E 036°39'  
Track history (hours):
 
Tides and Currents Weather Stations Pressure Air Temp Water Temp Dewpoint Dewpoint Depression Visibility Wind Speed Wind Dir Waves Ship Positions

Omskiy-107

Last reported at 2017-Dec-13 04:02 UTC. Time now 2017-Dec-18 16:38 UTC.
Position N 45°28' E 036°43'.

Length 108 m; draft 2.6 m.

Type: Cargo ship. MMSI: 273343220.

Date/timePositionNaut miles runAvg speedWind from/ knotsBaromVisibWave heightAir tempDewpointWater temp
2017-Dec-13 04:02N 45°28' E 036°43'0 8.6
2017-Dec-13 03:59N 45°27' E 036°43'4 8.7
2017-Dec-13 03:30N 45°23' E 036°41'4 8.1
2017-Dec-13 03:00N 45°20' E 036°36'7 7.6
2017-Dec-13 02:05N 45°16' E 036°29'0 5.5
2017-Dec-13 02:00N 45°16' E 036°28'7 0.9
2017-Dec-12 18:33N 45°09' E 036°32'0 0.0
2017-Dec-12 17:47N 45°09' E 036°32'0 0.0
2017-Dec-12 17:28N 45°09' E 036°32'0 0.0
2017-Dec-12 15:42N 45°09' E 036°32'0 0.0
2017-Dec-12 14:01N 45°09' E 036°32'0 0.0
2017-Dec-12 14:00N 45°09' E 036°32'0 0.0
2017-Dec-12 13:18N 45°09' E 036°32'0 0.0
2017-Dec-12 12:43N 45°09' E 036°32'0 0.0
2017-Dec-12 11:07N 45°09' E 036°32'  
2017-Dec-03 12:38N 45°09' E 036°28'2 7.4
2017-Dec-03 12:25N 45°11' E 036°28'3 7.4
2017-Dec-03 12:01N 45°14' E 036°28'4 7.1
2017-Dec-03 11:30N 45°17' E 036°29'4 7.4
2017-Dec-03 11:01N 45°19' E 036°33'4 7.4
2017-Dec-03 10:31N 45°21' E 036°38'3 6.6
2017-Dec-03 10:01N 45°24' E 036°40'3 5.8
2017-Dec-03 09:31N 45°27' E 036°40'1 2.4
2017-Dec-03 09:00N 45°28' E 036°39'0 0.0
2017-Dec-03 08:29N 45°28' E 036°39'0 0.0
2017-Dec-03 08:00N 45°28' E 036°39'0 0.0
2017-Dec-03 07:29N 45°28' E 036°39'0 0.0
2017-Dec-03 06:59N 45°28' E 036°39'0 0.0
2017-Dec-03 06:29N 45°28' E 036°39'0 0.0
2017-Dec-03 05:59N 45°28' E 036°39'0 0.0
2017-Dec-03 05:29N 45°28' E 036°39'0 0.0
2017-Dec-03 05:00N 45°28' E 036°39'0 0.1
2017-Dec-03 04:26N 45°28' E 036°39'  

Dump ship's entire track history